JES3130 SACO-SAZS
Flight info
| Callsign | JES3130 |
|---|---|
| Flight time | 2h 13m |
| Altitude | 38000 |
| Route | ALDEX1G ALDEX UT685 MOCHO UW44 CHATO CHATO1Q |
| Aircraft | A20N/M-SDE2E3FGHIRWXY/LB1 |
Departure
| Time | 2026-05-07 17:25 |
|---|---|
| Airport | Ingeniero Aeronáutico Ambrosio L.V. Taravella International Airport (SACO) |
Arrival
| Time | 2026-05-07 19:38 |
|---|---|
| Airport | Teniente Luis Candelaria International Airport (SAZS) |
| Time | Latitude | Longitude | Altitude | Speed | Heading |
|---|---|---|---|---|---|
| 2026-05-07 17:03 | -31.31612 | -64.21170 | 1617 ft | 0 kts | 268° |
| 2026-05-07 17:16 | -31.31612 | -64.21158 | 1620 ft | 4 kts | 271° |
| 2026-05-07 17:16 | -31.31613 | -64.21128 | 1618 ft | 4 kts | 290° |
| 2026-05-07 17:17 | -31.31627 | -64.21104 | 1618 ft | 4 kts | 342° |
| 2026-05-07 17:17 | -31.31641 | -64.21101 | 1622 ft | 1 kts | 360° |
| 2026-05-07 17:17 | -31.31642 | -64.21101 | 1622 ft | 0 kts | 360° |
| 2026-05-07 17:19 | -31.31632 | -64.21101 | 1617 ft | 3 kts | 360° |
| 2026-05-07 17:19 | -31.31604 | -64.21102 | 1615 ft | 5 kts | 360° |
| 2026-05-07 17:20 | -31.31562 | -64.21092 | 1617 ft | 7 kts | 26° |
| 2026-05-07 17:20 | -31.31508 | -64.21069 | 1620 ft | 9 kts | 21° |
| 2026-05-07 17:20 | -31.31470 | -64.21005 | 1613 ft | 11 kts | 74° |
| 2026-05-07 17:20 | -31.31466 | -64.20909 | 1613 ft | 13 kts | 89° |
| 2026-05-07 17:21 | -31.31416 | -64.20832 | 1622 ft | 14 kts | 16° |
| 2026-05-07 17:21 | -31.31310 | -64.20831 | 1615 ft | 17 kts | 360° |
| 2026-05-07 17:21 | -31.31185 | -64.20831 | 1619 ft | 19 kts | 359° |
| 2026-05-07 17:21 | -31.31044 | -64.20834 | 1617 ft | 21 kts | 1° |
| 2026-05-07 17:22 | -31.30887 | -64.20837 | 1615 ft | 23 kts | 359° |
| 2026-05-07 17:22 | -31.30718 | -64.20840 | 1617 ft | 25 kts | 359° |
| 2026-05-07 17:22 | -31.30540 | -64.20843 | 1618 ft | 26 kts | 359° |
| 2026-05-07 17:22 | -31.30356 | -64.20845 | 1618 ft | 27 kts | 359° |
| 2026-05-07 17:23 | -31.30162 | -64.20848 | 1616 ft | 28 kts | 360° |
| 2026-05-07 17:23 | -31.29959 | -64.20851 | 1616 ft | 30 kts | 358° |
| 2026-05-07 17:23 | -31.29749 | -64.20855 | 1617 ft | 30 kts | 359° |
| 2026-05-07 17:23 | -31.29611 | -64.20892 | 1613 ft | 6 kts | 21° |
| 2026-05-07 17:24 | -31.29609 | -64.20859 | 1616 ft | 3 kts | 136° |
| 2026-05-07 17:24 | -31.29645 | -64.20855 | 1618 ft | 9 kts | 178° |
| 2026-05-07 17:24 | -31.29939 | -64.20853 | 1618 ft | 76 kts | 179° |
| 2026-05-07 17:24 | -31.30676 | -64.20840 | 1618 ft | 132 kts | 179° |
| 2026-05-07 17:25 | -31.31696 | -64.20815 | 1853 ft | 154 kts | 181° |
| 2026-05-07 17:25 | -31.32791 | -64.20788 | 2466 ft | 163 kts | 180° |
| 2026-05-07 17:25 | -31.34020 | -64.20736 | 2733 ft | 191 kts | 178° |
| 2026-05-07 17:25 | -31.35436 | -64.20623 | 3052 ft | 213 kts | 169° |
| 2026-05-07 17:26 | -31.36761 | -64.19804 | 3676 ft | 220 kts | 134° |
| 2026-05-07 17:26 | -31.37491 | -64.18238 | 4403 ft | 223 kts | 103° |
| 2026-05-07 17:26 | -31.37811 | -64.16440 | 5084 ft | 230 kts | 100° |
| 2026-05-07 17:26 | -31.38096 | -64.14567 | 5623 ft | 241 kts | 101° |
| 2026-05-07 17:27 | -31.38393 | -64.12613 | 6279 ft | 249 kts | 102° |
| 2026-05-07 17:27 | -31.38715 | -64.10529 | 6656 ft | 269 kts | 101° |
| 2026-05-07 17:27 | -31.38854 | -64.08326 | 7383 ft | 274 kts | 80° |
| 2026-05-07 17:27 | -31.38172 | -64.06232 | 8028 ft | 279 kts | 50° |
| 2026-05-07 17:28 | -31.36745 | -64.04746 | 8752 ft | 272 kts | 20° |
| 2026-05-07 17:28 | -31.34986 | -64.04214 | 9478 ft | 261 kts | 351° |
| 2026-05-07 17:28 | -31.33284 | -64.04683 | 10188 ft | 246 kts | 322° |
| 2026-05-07 17:28 | -31.32077 | -64.06001 | 10913 ft | 235 kts | 297° |
| 2026-05-07 17:29 | -31.31420 | -64.07736 | 11609 ft | 233 kts | 279° |
| 2026-05-07 17:29 | -31.31308 | -64.09623 | 12338 ft | 235 kts | 266° |
| 2026-05-07 17:29 | -31.31365 | -64.11528 | 13051 ft | 238 kts | 268° |
| 2026-05-07 17:29 | -31.31378 | -64.13472 | 13807 ft | 240 kts | 269° |
| 2026-05-07 17:30 | -31.31375 | -64.15442 | 14450 ft | 244 kts | 269° |
| 2026-05-07 17:30 | -31.31367 | -64.17443 | 15104 ft | 246 kts | 269° |
| 2026-05-07 17:30 | -31.31370 | -64.19455 | 15747 ft | 249 kts | 267° |
| 2026-05-07 17:30 | -31.31579 | -64.21475 | 16402 ft | 251 kts | 258° |
| 2026-05-07 17:31 | -31.32007 | -64.23466 | 16848 ft | 264 kts | 257° |
| 2026-05-07 17:31 | -31.32478 | -64.25631 | 17014 ft | 284 kts | 257° |
| 2026-05-07 17:31 | -31.32976 | -64.27953 | 17183 ft | 304 kts | 257° |
| 2026-05-07 17:31 | -31.33505 | -64.30432 | 17361 ft | 323 kts | 257° |
| 2026-05-07 17:32 | -31.34064 | -64.33057 | 17542 ft | 341 kts | 257° |
| 2026-05-07 17:32 | -31.34647 | -64.35793 | 17963 ft | 350 kts | 257° |
| 2026-05-07 17:32 | -31.35234 | -64.38541 | 18582 ft | 352 kts | 257° |
| 2026-05-07 17:32 | -31.35827 | -64.41330 | 19207 ft | 354 kts | 257° |
| 2026-05-07 17:33 | -31.36417 | -64.44107 | 19813 ft | 356 kts | 257° |
| 2026-05-07 17:33 | -31.37017 | -64.46935 | 20334 ft | 360 kts | 257° |
| 2026-05-07 17:33 | -31.37625 | -64.49805 | 20923 ft | 362 kts | 257° |
| 2026-05-07 17:33 | -31.38234 | -64.52686 | 21503 ft | 365 kts | 257° |
| 2026-05-07 17:34 | -31.38896 | -64.55573 | 22038 ft | 370 kts | 253° |
| 2026-05-07 17:34 | -31.39801 | -64.58366 | 22579 ft | 373 kts | 250° |
| 2026-05-07 17:34 | -31.40770 | -64.61206 | 23134 ft | 376 kts | 250° |
| 2026-05-07 17:34 | -31.41739 | -64.64068 | 23685 ft | 378 kts | 250° |
| 2026-05-07 17:35 | -31.42708 | -64.66943 | 24118 ft | 380 kts | 250° |
| 2026-05-07 17:35 | -31.43682 | -64.69838 | 24589 ft | 382 kts | 250° |
| 2026-05-07 17:35 | -31.44644 | -64.72701 | 25065 ft | 383 kts | 250° |
| 2026-05-07 17:35 | -31.45622 | -64.75613 | 25524 ft | 385 kts | 249° |
| 2026-05-07 17:36 | -31.46606 | -64.78543 | 25952 ft | 387 kts | 249° |
| 2026-05-07 17:36 | -31.47596 | -64.81491 | 26398 ft | 388 kts | 249° |
| 2026-05-07 17:36 | -31.48586 | -64.84441 | 26820 ft | 390 kts | 249° |
| 2026-05-07 17:36 | -31.49697 | -64.87365 | 27246 ft | 393 kts | 243° |
| 2026-05-07 17:37 | -31.51062 | -64.90146 | 27649 ft | 395 kts | 240° |
| 2026-05-07 17:37 | -31.52465 | -64.92878 | 28050 ft | 396 kts | 240° |
| 2026-05-07 17:37 | -31.53887 | -64.95669 | 28428 ft | 398 kts | 240° |
| 2026-05-07 17:37 | -31.55304 | -64.98461 | 28843 ft | 399 kts | 240° |
| 2026-05-07 17:38 | -31.56727 | -65.01266 | 29187 ft | 401 kts | 239° |
| 2026-05-07 17:38 | -31.58157 | -65.04086 | 29529 ft | 403 kts | 239° |
| 2026-05-07 17:38 | -31.59596 | -65.06922 | 29873 ft | 405 kts | 239° |
| 2026-05-07 17:38 | -31.61038 | -65.09769 | 30203 ft | 407 kts | 239° |
| 2026-05-07 17:39 | -31.62470 | -65.12597 | 30490 ft | 408 kts | 239° |
| 2026-05-07 17:39 | -31.63950 | -65.15459 | 30788 ft | 409 kts | 236° |
| 2026-05-07 17:39 | -31.65698 | -65.18110 | 31074 ft | 412 kts | 229° |
| 2026-05-07 17:39 | -31.67763 | -65.20459 | 31422 ft | 413 kts | 222° |
| 2026-05-07 17:40 | -31.70053 | -65.22424 | 31800 ft | 414 kts | 215° |
| 2026-05-07 17:40 | -31.72541 | -65.24153 | 32169 ft | 414 kts | 214° |
| 2026-05-07 17:40 | -31.75037 | -65.25886 | 32524 ft | 413 kts | 214° |
| 2026-05-07 17:40 | -31.77513 | -65.27615 | 32918 ft | 412 kts | 214° |
| 2026-05-07 17:41 | -31.79943 | -65.29312 | 33292 ft | 411 kts | 214° |
| 2026-05-07 17:41 | -31.82401 | -65.31029 | 33630 ft | 410 kts | 215° |
| 2026-05-07 17:41 | -31.84859 | -65.32746 | 33969 ft | 409 kts | 215° |
| 2026-05-07 17:41 | -31.87301 | -65.34453 | 34276 ft | 407 kts | 214° |
| 2026-05-07 17:42 | -31.89708 | -65.36136 | 34542 ft | 406 kts | 214° |
| 2026-05-07 17:42 | -31.92133 | -65.37833 | 34786 ft | 406 kts | 215° |
| 2026-05-07 17:42 | -31.94571 | -65.39540 | 35032 ft | 405 kts | 215° |
| 2026-05-07 17:42 | -31.96996 | -65.41239 | 35289 ft | 404 kts | 214° |
| 2026-05-07 17:43 | -31.99389 | -65.42917 | 35508 ft | 404 kts | 214° |
| 2026-05-07 17:43 | -32.01802 | -65.44610 | 35719 ft | 404 kts | 214° |
| 2026-05-07 17:43 | -32.04222 | -65.46291 | 35920 ft | 405 kts | 213° |
| 2026-05-07 17:43 | -32.06757 | -65.47777 | 36145 ft | 406 kts | 210° |
| 2026-05-07 17:44 | -32.09314 | -65.49211 | 36356 ft | 405 kts | 210° |
| 2026-05-07 17:44 | -32.11859 | -65.50649 | 36542 ft | 405 kts | 210° |
| 2026-05-07 17:44 | -32.14372 | -65.52073 | 36731 ft | 404 kts | 210° |
| 2026-05-07 17:44 | -32.16907 | -65.53511 | 36941 ft | 403 kts | 210° |
| 2026-05-07 17:45 | -32.19446 | -65.54951 | 37140 ft | 403 kts | 210° |
| 2026-05-07 17:45 | -32.21971 | -65.56382 | 37313 ft | 402 kts | 210° |
| 2026-05-07 17:45 | -32.24499 | -65.57816 | 37481 ft | 402 kts | 210° |
| 2026-05-07 17:45 | -32.27016 | -65.59245 | 37671 ft | 401 kts | 210° |
| 2026-05-07 17:46 | -32.29502 | -65.60657 | 37865 ft | 400 kts | 210° |
| 2026-05-07 17:46 | -32.32010 | -65.62081 | 37966 ft | 400 kts | 210° |
| 2026-05-07 17:46 | -32.37007 | -65.64924 | 37968 ft | 396 kts | 209° |
| 2026-05-07 17:47 | -32.41931 | -65.67731 | 37963 ft | 393 kts | 209° |
| 2026-05-07 17:47 | -32.46859 | -65.70545 | 37966 ft | 392 kts | 209° |
| 2026-05-07 17:48 | -32.51759 | -65.73345 | 37960 ft | 390 kts | 209° |
| 2026-05-07 17:48 | -32.56627 | -65.76130 | 37968 ft | 389 kts | 209° |
| 2026-05-07 17:49 | -32.61487 | -65.78913 | 37955 ft | 386 kts | 209° |
| 2026-05-07 17:49 | -32.66313 | -65.81679 | 37950 ft | 383 kts | 208° |
| 2026-05-07 17:50 | -32.71104 | -65.84428 | 37967 ft | 382 kts | 208° |
| 2026-05-07 17:50 | -32.75899 | -65.87185 | 37966 ft | 385 kts | 208° |
| 2026-05-07 17:51 | -32.80714 | -65.89955 | 37968 ft | 384 kts | 208° |
| 2026-05-07 17:51 | -32.85528 | -65.92727 | 37967 ft | 383 kts | 208° |
| 2026-05-07 17:52 | -32.90326 | -65.95492 | 37973 ft | 383 kts | 208° |
| 2026-05-07 17:52 | -32.95115 | -65.98258 | 37972 ft | 382 kts | 208° |
| 2026-05-07 17:53 | -32.99851 | -66.01001 | 37958 ft | 378 kts | 209° |
| 2026-05-07 17:53 | -33.04370 | -66.04210 | 37978 ft | 379 kts | 213° |
| 2026-05-07 17:54 | -33.08078 | -66.07027 | 37979 ft | 379 kts | 213° |
| 2026-05-07 17:54 | -33.12507 | -66.10383 | 37994 ft | 378 kts | 212° |
| 2026-05-07 17:55 | -33.16936 | -66.13750 | 37986 ft | 376 kts | 212° |
| 2026-05-07 17:55 | -33.22079 | -66.17669 | 37997 ft | 376 kts | 212° |
| 2026-05-07 17:56 | -33.25748 | -66.20466 | 37996 ft | 376 kts | 212° |
| 2026-05-07 17:56 | -33.30151 | -66.23824 | 38001 ft | 374 kts | 212° |
| 2026-05-07 17:57 | -33.33790 | -66.26603 | 37993 ft | 372 kts | 212° |
| 2026-05-07 17:57 | -33.38898 | -66.30509 | 37991 ft | 372 kts | 211° |
| 2026-05-07 17:58 | -33.43245 | -66.33838 | 37989 ft | 370 kts | 211° |
| 2026-05-07 17:58 | -33.47570 | -66.37152 | 37990 ft | 370 kts | 211° |
| 2026-05-07 17:59 | -33.51883 | -66.40463 | 37977 ft | 367 kts | 211° |
| 2026-05-07 17:59 | -33.56172 | -66.43760 | 37968 ft | 365 kts | 211° |
| 2026-05-07 18:00 | -33.60445 | -66.47048 | 37979 ft | 366 kts | 211° |
| 2026-05-07 18:00 | -33.64755 | -66.50368 | 37978 ft | 368 kts | 211° |
| 2026-05-07 18:01 | -33.69043 | -66.53676 | 37970 ft | 365 kts | 210° |
| 2026-05-07 18:01 | -33.73300 | -66.56964 | 37978 ft | 365 kts | 210° |
| 2026-05-07 18:02 | -33.79688 | -66.61905 | 37966 ft | 363 kts | 210° |
| 2026-05-07 18:03 | -33.83938 | -66.65197 | 37974 ft | 361 kts | 210° |
| 2026-05-07 18:03 | -33.88127 | -66.68447 | 37958 ft | 359 kts | 210° |
| 2026-05-07 18:04 | -33.92330 | -66.71713 | 37948 ft | 357 kts | 210° |
| 2026-05-07 18:04 | -33.96499 | -66.74955 | 37966 ft | 361 kts | 210° |
| 2026-05-07 18:05 | -34.00723 | -66.78246 | 37973 ft | 360 kts | 210° |
| 2026-05-07 18:05 | -34.04929 | -66.81526 | 37965 ft | 360 kts | 210° |
| 2026-05-07 18:06 | -34.09128 | -66.84804 | 37964 ft | 359 kts | 210° |
| 2026-05-07 18:06 | -34.13311 | -66.88072 | 37965 ft | 359 kts | 210° |
| 2026-05-07 18:07 | -34.17498 | -66.91349 | 37976 ft | 358 kts | 210° |
| 2026-05-07 18:07 | -34.21674 | -66.94620 | 37966 ft | 357 kts | 210° |
| 2026-05-07 18:08 | -34.25799 | -66.97856 | 37962 ft | 356 kts | 210° |
| 2026-05-07 18:08 | -34.29963 | -67.01126 | 37970 ft | 356 kts | 210° |
| 2026-05-07 18:09 | -34.34090 | -67.04370 | 37972 ft | 355 kts | 210° |
| 2026-05-07 18:09 | -34.38239 | -67.07637 | 37975 ft | 354 kts | 210° |
| 2026-05-07 18:10 | -34.42355 | -67.10881 | 37964 ft | 353 kts | 210° |
| 2026-05-07 18:10 | -34.46472 | -67.14130 | 37962 ft | 352 kts | 210° |
| 2026-05-07 18:11 | -34.50559 | -67.17359 | 37961 ft | 352 kts | 210° |
| 2026-05-07 18:11 | -34.54664 | -67.20607 | 37961 ft | 351 kts | 210° |
| 2026-05-07 18:12 | -34.58731 | -67.23827 | 37950 ft | 350 kts | 210° |
| 2026-05-07 18:12 | -34.62830 | -67.27076 | 37955 ft | 350 kts | 210° |
| 2026-05-07 18:13 | -34.66889 | -67.30296 | 37952 ft | 350 kts | 210° |
| 2026-05-07 18:13 | -34.70962 | -67.33532 | 37939 ft | 350 kts | 210° |
| 2026-05-07 18:14 | -34.75012 | -67.36753 | 37942 ft | 350 kts | 210° |
| 2026-05-07 18:14 | -34.79093 | -67.40005 | 37931 ft | 350 kts | 210° |
| 2026-05-07 18:15 | -34.83178 | -67.43262 | 37931 ft | 351 kts | 210° |
| 2026-05-07 18:15 | -34.87246 | -67.46510 | 37931 ft | 351 kts | 210° |
| 2026-05-07 18:16 | -34.91343 | -67.49784 | 37933 ft | 352 kts | 210° |
| 2026-05-07 18:16 | -34.95431 | -67.53056 | 37937 ft | 354 kts | 210° |
| 2026-05-07 18:17 | -34.99560 | -67.56365 | 37943 ft | 355 kts | 210° |
| 2026-05-07 18:17 | -35.03681 | -67.59672 | 37944 ft | 356 kts | 210° |
| 2026-05-07 18:18 | -35.07840 | -67.63013 | 37948 ft | 358 kts | 211° |
| 2026-05-07 18:18 | -35.11987 | -67.66349 | 37948 ft | 359 kts | 211° |
| 2026-05-07 18:19 | -35.16172 | -67.69720 | 37947 ft | 360 kts | 211° |
| 2026-05-07 18:19 | -35.17206 | -67.70553 | 37947 ft | 360 kts | 211° |
| 2026-05-07 18:20 | -35.21121 | -67.73711 | 37934 ft | 359 kts | 211° |
| 2026-05-07 18:20 | -35.25267 | -67.77060 | 37934 ft | 359 kts | 211° |
| 2026-05-07 18:21 | -35.29432 | -67.80429 | 37931 ft | 358 kts | 211° |
| 2026-05-07 18:21 | -35.33589 | -67.83795 | 37930 ft | 358 kts | 211° |
| 2026-05-07 18:22 | -35.37742 | -67.87160 | 37927 ft | 357 kts | 211° |
| 2026-05-07 18:22 | -35.41854 | -67.90497 | 37927 ft | 356 kts | 211° |
| 2026-05-07 18:23 | -35.45993 | -67.93861 | 37924 ft | 355 kts | 211° |
| 2026-05-07 18:23 | -35.50086 | -67.97192 | 37917 ft | 354 kts | 210° |
| 2026-05-07 18:24 | -35.54193 | -68.00538 | 37910 ft | 353 kts | 210° |
| 2026-05-07 18:24 | -35.58265 | -68.03858 | 37901 ft | 352 kts | 210° |
| 2026-05-07 18:25 | -35.62371 | -68.07210 | 37922 ft | 357 kts | 211° |
| 2026-05-07 18:25 | -35.66492 | -68.10579 | 37922 ft | 356 kts | 211° |
| 2026-05-07 18:26 | -35.70636 | -68.13972 | 37925 ft | 358 kts | 211° |
| 2026-05-07 18:26 | -35.74768 | -68.17360 | 37921 ft | 358 kts | 211° |
| 2026-05-07 18:27 | -35.78927 | -68.20774 | 37925 ft | 358 kts | 211° |
| 2026-05-07 18:27 | -35.83062 | -68.24172 | 37929 ft | 359 kts | 211° |
| 2026-05-07 18:28 | -35.87234 | -68.27605 | 37926 ft | 360 kts | 211° |
| 2026-05-07 18:28 | -35.91406 | -68.31043 | 37935 ft | 361 kts | 211° |
| 2026-05-07 18:29 | -35.95564 | -68.34473 | 37924 ft | 361 kts | 211° |
| 2026-05-07 18:29 | -35.99741 | -68.37925 | 37931 ft | 361 kts | 211° |
| 2026-05-07 18:30 | -36.03923 | -68.41384 | 37925 ft | 361 kts | 211° |
| 2026-05-07 18:30 | -36.08080 | -68.44827 | 37928 ft | 361 kts | 211° |
| 2026-05-07 18:31 | -36.12255 | -68.48288 | 37925 ft | 360 kts | 211° |
| 2026-05-07 18:31 | -36.16394 | -68.51725 | 37935 ft | 360 kts | 211° |
| 2026-05-07 18:32 | -36.20553 | -68.55183 | 37927 ft | 360 kts | 211° |
| 2026-05-07 18:32 | -36.24723 | -68.58655 | 37930 ft | 359 kts | 212° |
| 2026-05-07 18:33 | -36.28852 | -68.62097 | 37925 ft | 359 kts | 212° |
| 2026-05-07 18:33 | -36.33006 | -68.65565 | 37929 ft | 359 kts | 212° |
| 2026-05-07 18:34 | -36.37158 | -68.69034 | 37930 ft | 359 kts | 212° |
| 2026-05-07 18:34 | -36.41204 | -68.72420 | 37935 ft | 359 kts | 212° |
| 2026-05-07 18:35 | -36.42229 | -68.73279 | 37938 ft | 359 kts | 212° |
| 2026-05-07 18:35 | -36.46374 | -68.76754 | 37942 ft | 359 kts | 212° |
| 2026-05-07 18:36 | -36.50489 | -68.80209 | 37951 ft | 358 kts | 212° |
| 2026-05-07 18:36 | -36.54627 | -68.83687 | 37940 ft | 357 kts | 212° |
| 2026-05-07 18:37 | -36.58729 | -68.87138 | 37944 ft | 355 kts | 212° |
| 2026-05-07 18:37 | -36.62806 | -68.90573 | 37943 ft | 355 kts | 212° |
| 2026-05-07 18:38 | -36.66900 | -68.94027 | 37954 ft | 354 kts | 212° |
| 2026-05-07 18:38 | -36.70979 | -68.97473 | 37951 ft | 353 kts | 212° |
| 2026-05-07 18:39 | -36.75038 | -69.00906 | 37955 ft | 354 kts | 213° |
| 2026-05-07 18:39 | -36.79099 | -69.04345 | 37961 ft | 353 kts | 213° |
| 2026-05-07 18:40 | -36.83170 | -69.07798 | 37970 ft | 353 kts | 213° |
| 2026-05-07 18:40 | -36.87210 | -69.11229 | 37961 ft | 351 kts | 213° |
| 2026-05-07 18:41 | -36.91239 | -69.14655 | 37967 ft | 350 kts | 213° |
| 2026-05-07 18:41 | -36.95272 | -69.18090 | 37967 ft | 349 kts | 213° |
| 2026-05-07 18:42 | -36.99254 | -69.21485 | 37971 ft | 348 kts | 213° |
| 2026-05-07 18:42 | -37.03255 | -69.24900 | 37970 ft | 347 kts | 213° |
| 2026-05-07 18:43 | -37.07235 | -69.28301 | 37968 ft | 345 kts | 213° |
| 2026-05-07 18:43 | -37.11167 | -69.31666 | 37966 ft | 344 kts | 213° |
| 2026-05-07 18:44 | -37.15118 | -69.35053 | 37963 ft | 343 kts | 213° |
| 2026-05-07 18:44 | -37.19058 | -69.38434 | 37977 ft | 342 kts | 213° |
| 2026-05-07 18:45 | -37.22997 | -69.41818 | 37977 ft | 346 kts | 213° |
| 2026-05-07 18:45 | -37.26969 | -69.45235 | 37989 ft | 344 kts | 213° |
| 2026-05-07 18:46 | -37.30889 | -69.48617 | 37995 ft | 345 kts | 213° |
| 2026-05-07 18:46 | -37.34852 | -69.52035 | 37997 ft | 344 kts | 214° |
| 2026-05-07 18:47 | -37.38782 | -69.55430 | 37995 ft | 344 kts | 214° |
| 2026-05-07 18:47 | -37.42721 | -69.58839 | 38004 ft | 343 kts | 214° |
| 2026-05-07 18:48 | -37.46658 | -69.62250 | 38011 ft | 343 kts | 214° |
| 2026-05-07 18:48 | -37.49930 | -69.65088 | 38019 ft | 342 kts | 214° |
| 2026-05-07 18:49 | -37.54488 | -69.69047 | 38028 ft | 341 kts | 214° |
| 2026-05-07 18:49 | -37.57732 | -69.71869 | 38026 ft | 341 kts | 214° |
| 2026-05-07 18:50 | -37.61637 | -69.75268 | 38032 ft | 339 kts | 214° |
| 2026-05-07 18:50 | -37.65527 | -69.78660 | 38032 ft | 339 kts | 214° |
| 2026-05-07 18:51 | -37.69400 | -69.82041 | 38038 ft | 339 kts | 214° |
| 2026-05-07 18:51 | -37.73267 | -69.85422 | 38048 ft | 339 kts | 214° |
| 2026-05-07 18:52 | -37.77143 | -69.88814 | 38045 ft | 338 kts | 214° |
| 2026-05-07 18:52 | -37.81011 | -69.92204 | 38041 ft | 338 kts | 214° |
| 2026-05-07 18:53 | -37.84857 | -69.95579 | 38047 ft | 338 kts | 214° |
| 2026-05-07 18:53 | -37.88717 | -69.98971 | 38043 ft | 337 kts | 214° |
| 2026-05-07 18:54 | -37.92582 | -70.02370 | 38047 ft | 337 kts | 214° |
| 2026-05-07 18:54 | -37.96411 | -70.05743 | 38054 ft | 337 kts | 215° |
| 2026-05-07 18:55 | -38.00274 | -70.09151 | 38058 ft | 338 kts | 215° |
| 2026-05-07 18:55 | -38.04124 | -70.12551 | 38067 ft | 339 kts | 215° |
| 2026-05-07 18:56 | -38.08008 | -70.15986 | 38070 ft | 340 kts | 215° |
| 2026-05-07 18:56 | -38.11873 | -70.19408 | 38076 ft | 340 kts | 215° |
| 2026-05-07 18:57 | -38.15774 | -70.22868 | 38083 ft | 341 kts | 215° |
| 2026-05-07 18:57 | -38.19646 | -70.26306 | 38083 ft | 342 kts | 215° |
| 2026-05-07 18:58 | -38.23554 | -70.29781 | 38082 ft | 342 kts | 215° |
| 2026-05-07 18:58 | -38.27664 | -70.32880 | 38094 ft | 344 kts | 208° |
| 2026-05-07 18:59 | -38.32096 | -70.35172 | 38097 ft | 348 kts | 202° |
| 2026-05-07 18:59 | -38.36816 | -70.36703 | 38105 ft | 351 kts | 198° |
| 2026-05-07 19:00 | -38.41586 | -70.38069 | 38100 ft | 350 kts | 198° |
| 2026-05-07 19:00 | -38.46324 | -70.39428 | 38099 ft | 348 kts | 198° |
| 2026-05-07 19:01 | -38.51037 | -70.40776 | 38100 ft | 349 kts | 198° |
| 2026-05-07 19:01 | -38.55777 | -70.42131 | 38099 ft | 348 kts | 198° |
| 2026-05-07 19:02 | -38.60490 | -70.43481 | 38105 ft | 350 kts | 198° |
| 2026-05-07 19:02 | -38.65251 | -70.44846 | 38106 ft | 351 kts | 198° |
| 2026-05-07 19:03 | -38.70041 | -70.46223 | 38100 ft | 355 kts | 197° |
| 2026-05-07 19:03 | -38.74860 | -70.47612 | 38105 ft | 358 kts | 197° |
| 2026-05-07 19:04 | -38.79713 | -70.49007 | 38099 ft | 358 kts | 197° |
| 2026-05-07 19:04 | -38.84603 | -70.50416 | 38114 ft | 360 kts | 197° |
| 2026-05-07 19:05 | -38.89506 | -70.51832 | 38118 ft | 361 kts | 197° |
| 2026-05-07 19:05 | -38.94374 | -70.53237 | 38027 ft | 360 kts | 197° |
| 2026-05-07 19:05 | -38.96813 | -70.53943 | 37770 ft | 359 kts | 197° |
| 2026-05-07 19:06 | -38.99259 | -70.54652 | 37511 ft | 359 kts | 197° |
| 2026-05-07 19:06 | -39.04144 | -70.56068 | 36988 ft | 360 kts | 197° |
| 2026-05-07 19:06 | -39.06586 | -70.56775 | 36723 ft | 359 kts | 197° |
| 2026-05-07 19:07 | -39.09035 | -70.57486 | 36471 ft | 359 kts | 197° |
| 2026-05-07 19:07 | -39.11442 | -70.58185 | 36236 ft | 359 kts | 197° |
| 2026-05-07 19:07 | -39.13881 | -70.58894 | 36005 ft | 359 kts | 197° |
| 2026-05-07 19:07 | -39.16321 | -70.59604 | 35756 ft | 357 kts | 197° |
| 2026-05-07 19:08 | -39.18744 | -70.60310 | 35514 ft | 356 kts | 197° |
| 2026-05-07 19:08 | -39.21176 | -70.61018 | 35289 ft | 358 kts | 197° |
| 2026-05-07 19:08 | -39.23602 | -70.61726 | 35055 ft | 357 kts | 197° |
| 2026-05-07 19:08 | -39.26024 | -70.62432 | 34833 ft | 357 kts | 198° |
| 2026-05-07 19:09 | -39.28450 | -70.63141 | 34606 ft | 358 kts | 197° |
| 2026-05-07 19:09 | -39.30852 | -70.63842 | 34381 ft | 357 kts | 198° |
| 2026-05-07 19:09 | -39.33274 | -70.64550 | 34155 ft | 357 kts | 198° |
| 2026-05-07 19:09 | -39.35701 | -70.65260 | 33897 ft | 358 kts | 198° |
| 2026-05-07 19:10 | -39.38144 | -70.65976 | 33646 ft | 361 kts | 198° |
| 2026-05-07 19:10 | -39.40597 | -70.66695 | 33377 ft | 362 kts | 198° |
| 2026-05-07 19:10 | -39.43066 | -70.67419 | 33121 ft | 363 kts | 198° |
| 2026-05-07 19:10 | -39.45536 | -70.68143 | 32865 ft | 365 kts | 198° |
| 2026-05-07 19:11 | -39.48023 | -70.68873 | 32606 ft | 367 kts | 198° |
| 2026-05-07 19:11 | -39.50488 | -70.69598 | 32358 ft | 368 kts | 198° |
| 2026-05-07 19:11 | -39.52994 | -70.70334 | 32097 ft | 370 kts | 198° |
| 2026-05-07 19:11 | -39.55506 | -70.71073 | 31865 ft | 371 kts | 198° |
| 2026-05-07 19:12 | -39.58040 | -70.71820 | 31625 ft | 373 kts | 198° |
| 2026-05-07 19:12 | -39.60577 | -70.72567 | 31378 ft | 374 kts | 198° |
| 2026-05-07 19:12 | -39.63123 | -70.73319 | 31141 ft | 375 kts | 198° |
| 2026-05-07 19:12 | -39.65672 | -70.74071 | 30904 ft | 376 kts | 198° |
| 2026-05-07 19:13 | -39.68235 | -70.74828 | 30664 ft | 376 kts | 198° |
| 2026-05-07 19:13 | -39.70754 | -70.75571 | 30435 ft | 375 kts | 198° |
| 2026-05-07 19:13 | -39.73302 | -70.76324 | 30191 ft | 374 kts | 198° |
| 2026-05-07 19:13 | -39.75840 | -70.77074 | 29913 ft | 373 kts | 198° |
| 2026-05-07 19:14 | -39.78369 | -70.77823 | 29639 ft | 372 kts | 198° |
| 2026-05-07 19:14 | -39.80893 | -70.78571 | 29365 ft | 370 kts | 198° |
| 2026-05-07 19:14 | -39.83401 | -70.79315 | 29096 ft | 369 kts | 198° |
| 2026-05-07 19:14 | -39.85906 | -70.80059 | 28823 ft | 368 kts | 198° |
| 2026-05-07 19:15 | -39.88369 | -70.80791 | 28562 ft | 367 kts | 198° |
| 2026-05-07 19:15 | -39.90856 | -70.81530 | 28297 ft | 366 kts | 198° |
| 2026-05-07 19:15 | -39.93343 | -70.82270 | 28025 ft | 365 kts | 198° |
| 2026-05-07 19:15 | -39.95820 | -70.83008 | 27766 ft | 364 kts | 198° |
| 2026-05-07 19:16 | -39.98289 | -70.83743 | 27507 ft | 363 kts | 198° |
| 2026-05-07 19:16 | -40.00754 | -70.84479 | 27245 ft | 361 kts | 198° |
| 2026-05-07 19:16 | -40.03175 | -70.85202 | 26992 ft | 361 kts | 198° |
| 2026-05-07 19:16 | -40.05621 | -70.85933 | 26741 ft | 360 kts | 198° |
| 2026-05-07 19:17 | -40.08057 | -70.86661 | 26431 ft | 357 kts | 198° |
| 2026-05-07 19:17 | -40.10472 | -70.87383 | 25930 ft | 355 kts | 198° |
| 2026-05-07 19:17 | -40.12879 | -70.88103 | 25345 ft | 353 kts | 198° |
| 2026-05-07 19:17 | -40.15266 | -70.88818 | 24779 ft | 350 kts | 198° |
| 2026-05-07 19:18 | -40.17637 | -70.89528 | 24211 ft | 348 kts | 198° |
| 2026-05-07 19:18 | -40.19967 | -70.90227 | 23647 ft | 346 kts | 198° |
| 2026-05-07 19:18 | -40.22313 | -70.90932 | 23021 ft | 344 kts | 198° |
| 2026-05-07 19:18 | -40.24632 | -70.91629 | 22423 ft | 340 kts | 198° |
| 2026-05-07 19:19 | -40.26932 | -70.92320 | 21807 ft | 338 kts | 198° |
| 2026-05-07 19:19 | -40.29218 | -70.93007 | 21223 ft | 335 kts | 198° |
| 2026-05-07 19:19 | -40.31483 | -70.93689 | 20652 ft | 332 kts | 198° |
| 2026-05-07 19:19 | -40.33704 | -70.94358 | 20056 ft | 331 kts | 198° |
| 2026-05-07 19:20 | -40.35944 | -70.95034 | 19470 ft | 329 kts | 198° |
| 2026-05-07 19:20 | -40.38170 | -70.95706 | 18938 ft | 327 kts | 198° |
| 2026-05-07 19:20 | -40.40377 | -70.96372 | 18404 ft | 324 kts | 198° |
| 2026-05-07 19:20 | -40.42569 | -70.97036 | 17802 ft | 321 kts | 198° |
| 2026-05-07 19:21 | -40.44736 | -70.97693 | 17305 ft | 317 kts | 198° |
| 2026-05-07 19:21 | -40.46872 | -70.98340 | 17138 ft | 315 kts | 198° |
| 2026-05-07 19:21 | -40.49002 | -70.98989 | 17105 ft | 319 kts | 198° |
| 2026-05-07 19:21 | -40.51159 | -70.99644 | 17109 ft | 318 kts | 198° |
| 2026-05-07 19:22 | -40.53316 | -71.00297 | 17107 ft | 318 kts | 198° |
| 2026-05-07 19:22 | -40.55480 | -71.00952 | 17101 ft | 318 kts | 197° |
| 2026-05-07 19:22 | -40.57669 | -71.01413 | 16927 ft | 319 kts | 191° |
| 2026-05-07 19:22 | -40.59869 | -71.01520 | 16519 ft | 320 kts | 186° |
| 2026-05-07 19:23 | -40.62092 | -71.01528 | 15999 ft | 318 kts | 186° |
| 2026-05-07 19:23 | -40.64298 | -71.01548 | 15479 ft | 315 kts | 186° |
| 2026-05-07 19:23 | -40.66478 | -71.01572 | 14985 ft | 312 kts | 186° |
| 2026-05-07 19:23 | -40.68640 | -71.01597 | 14485 ft | 309 kts | 186° |
| 2026-05-07 19:24 | -40.70780 | -71.01622 | 14016 ft | 306 kts | 186° |
| 2026-05-07 19:24 | -40.72892 | -71.01645 | 13479 ft | 302 kts | 185° |
| 2026-05-07 19:24 | -40.74963 | -71.01670 | 12926 ft | 298 kts | 185° |
| 2026-05-07 19:24 | -40.77056 | -71.01655 | 12285 ft | 301 kts | 181° |
| 2026-05-07 19:25 | -40.79133 | -71.01287 | 11779 ft | 303 kts | 174° |
| 2026-05-07 19:25 | -40.81170 | -71.00505 | 11305 ft | 305 kts | 166° |
| 2026-05-07 19:25 | -40.83122 | -70.99449 | 11143 ft | 304 kts | 164° |
| 2026-05-07 19:25 | -40.85065 | -70.98419 | 11095 ft | 305 kts | 165° |
| 2026-05-07 19:26 | -40.87042 | -70.97378 | 11095 ft | 306 kts | 165° |
| 2026-05-07 19:26 | -40.89017 | -70.96336 | 10978 ft | 305 kts | 165° |
| 2026-05-07 19:26 | -40.90990 | -70.95293 | 10570 ft | 307 kts | 164° |
| 2026-05-07 19:26 | -40.92957 | -70.94251 | 10269 ft | 299 kts | 164° |
| 2026-05-07 19:27 | -40.94842 | -70.93243 | 10152 ft | 284 kts | 164° |
| 2026-05-07 19:27 | -40.96621 | -70.92290 | 10030 ft | 268 kts | 164° |
| 2026-05-07 19:27 | -40.98315 | -70.91383 | 9796 ft | 259 kts | 164° |
| 2026-05-07 19:27 | -40.99973 | -70.90503 | 9327 ft | 259 kts | 165° |
| 2026-05-07 19:28 | -41.01668 | -70.89603 | 8959 ft | 256 kts | 165° |
| 2026-05-07 19:28 | -41.03280 | -70.88744 | 8847 ft | 248 kts | 164° |
| 2026-05-07 19:28 | -41.04841 | -70.87910 | 8762 ft | 236 kts | 165° |
| 2026-05-07 19:28 | -41.06324 | -70.87113 | 8612 ft | 224 kts | 164° |
| 2026-05-07 19:29 | -41.07762 | -70.86345 | 8280 ft | 221 kts | 165° |
| 2026-05-07 19:29 | -41.09199 | -70.85582 | 8186 ft | 228 kts | 165° |
| 2026-05-07 19:29 | -41.10686 | -70.84796 | 8043 ft | 227 kts | 165° |
| 2026-05-07 19:29 | -41.12131 | -70.84024 | 7925 ft | 227 kts | 165° |
| 2026-05-07 19:30 | -41.13604 | -70.83238 | 7778 ft | 228 kts | 164° |
| 2026-05-07 19:30 | -41.15076 | -70.82444 | 7640 ft | 227 kts | 165° |
| 2026-05-07 19:30 | -41.16527 | -70.81658 | 7517 ft | 225 kts | 165° |
| 2026-05-07 19:30 | -41.17970 | -70.81044 | 7440 ft | 207 kts | 181° |
| 2026-05-07 19:31 | -41.19312 | -70.81258 | 7337 ft | 185 kts | 205° |
| 2026-05-07 19:31 | -41.20352 | -70.82120 | 7302 ft | 169 kts | 225° |
| 2026-05-07 19:31 | -41.21085 | -70.83283 | 7031 ft | 164 kts | 231° |
| 2026-05-07 19:31 | -41.21807 | -70.84472 | 6631 ft | 166 kts | 232° |
| 2026-05-07 19:32 | -41.22521 | -70.85631 | 6247 ft | 159 kts | 232° |
| 2026-05-07 19:32 | -41.23229 | -70.86782 | 6184 ft | 167 kts | 232° |
| 2026-05-07 19:32 | -41.23924 | -70.87936 | 6209 ft | 154 kts | 238° |
| 2026-05-07 19:32 | -41.24206 | -70.89316 | 6198 ft | 160 kts | 271° |
| 2026-05-07 19:33 | -41.23862 | -70.90742 | 6189 ft | 165 kts | 288° |
| 2026-05-07 19:33 | -41.23358 | -70.92079 | 6196 ft | 163 kts | 289° |
| 2026-05-07 19:33 | -41.22853 | -70.93452 | 6195 ft | 165 kts | 288° |
| 2026-05-07 19:33 | -41.22379 | -70.94804 | 6098 ft | 154 kts | 287° |
| 2026-05-07 19:34 | -41.21949 | -70.96036 | 5902 ft | 140 kts | 287° |
| 2026-05-07 19:34 | -41.21545 | -70.97214 | 5731 ft | 140 kts | 287° |
| 2026-05-07 19:34 | -41.21146 | -70.98367 | 5546 ft | 139 kts | 287° |
| 2026-05-07 19:34 | -41.20741 | -70.99537 | 5352 ft | 139 kts | 288° |
| 2026-05-07 19:35 | -41.20334 | -71.00715 | 5159 ft | 140 kts | 288° |
| 2026-05-07 19:35 | -41.19932 | -71.01879 | 4984 ft | 140 kts | 288° |
| 2026-05-07 19:35 | -41.19524 | -71.03051 | 4774 ft | 140 kts | 289° |
| 2026-05-07 19:35 | -41.19115 | -71.04233 | 4562 ft | 139 kts | 288° |
| 2026-05-07 19:36 | -41.18715 | -71.05383 | 4326 ft | 134 kts | 289° |
| 2026-05-07 19:36 | -41.18330 | -71.06497 | 4137 ft | 138 kts | 289° |
| 2026-05-07 19:36 | -41.17926 | -71.07663 | 3925 ft | 137 kts | 289° |
| 2026-05-07 19:36 | -41.17532 | -71.08796 | 3726 ft | 132 kts | 288° |
| 2026-05-07 19:37 | -41.17150 | -71.09903 | 3545 ft | 132 kts | 289° |
| 2026-05-07 19:37 | -41.16770 | -71.10996 | 3379 ft | 131 kts | 289° |
| 2026-05-07 19:37 | -41.16396 | -71.12072 | 3204 ft | 129 kts | 290° |
| 2026-05-07 19:37 | -41.16017 | -71.13152 | 3013 ft | 129 kts | 290° |
| 2026-05-07 19:38 | -41.15644 | -71.14236 | 2827 ft | 129 kts | 290° |
| 2026-05-07 19:38 | -41.15298 | -71.15240 | 2751 ft | 102 kts | 294° |
| 2026-05-07 19:38 | -41.15117 | -71.15762 | 2751 ft | 35 kts | 295° |
| 2026-05-07 19:38 | -41.15026 | -71.16033 | 2754 ft | 29 kts | 292° |
| 2026-05-07 19:39 | -41.14948 | -71.16250 | 2755 ft | 23 kts | 295° |
| 2026-05-07 19:39 | -41.14881 | -71.16328 | 2753 ft | 11 kts | 7° |
| 2026-05-07 19:39 | -41.14833 | -71.16305 | 2750 ft | 10 kts | 26° |
| 2026-05-07 19:39 | -41.14770 | -71.16261 | 2749 ft | 10 kts | 31° |
| 2026-05-07 19:40 | -41.14743 | -71.16239 | 2749 ft | 1 kts | 31° |
| 2026-05-07 19:40 | -41.14730 | -71.16221 | 2749 ft | 5 kts | 51° |
| 2026-05-07 19:40 | -41.14706 | -71.16174 | 2750 ft | 1 kts | 57° |
| 2026-05-07 19:40 | -41.14699 | -71.16161 | 2749 ft | 2 kts | 57° |
| 2026-05-07 19:41 | -41.14696 | -71.16155 | 2749 ft | 0 kts | 57° |